Pevek, Russia
Current Conditions -  °F | °C
As of 3:14 AM on Saturday 25 Oct 2014 (Local Time) from PALU Reporting Station
Broken Clouds Broken Clouds  
Wind Chill: 22°   Ceiling: 2900
Heat Index: 34°   Visibility: 10mi
Dew Point: 25°   Wind: 21mph
Humidity: 70%   Direction: 220°SW
Pressure: 29.56"   Gusts: 29mph
Location:  69.7°N, 170.38°E
Report Text: PALU 241514Z 22018G25KT 10SM BKN029 01/M04 A2956 RMK AO2A SLP011 LSR14 COR 1519
Loading
Personal Weather Stations






























Interactive Weather Map New forecast layout! Learn more

10-Day Weather Forecast

Advertisements
Track Severe Weather on mobile